createdAt,value
2016-11-28T00:00:40.517Z,79.15
2016-11-28T00:01:40.174Z,79.34
2016-11-28T00:02:40.435Z,79.91
2016-11-28T00:03:40.396Z,79.34
2016-11-28T00:04:40.353Z,79.44
2016-11-28T00:05:40.314Z,79.25
2016-11-28T00:06:40.268Z,79.91
2016-11-28T00:07:40.228Z,79.91
2016-11-28T00:08:40.186Z,79.63
2016-11-28T00:09:40.353Z,79.44
2016-11-28T00:10:40.107Z,79.53
2016-11-28T00:11:40.068Z,79.53
2016-11-28T00:12:39.723Z,79.63
2016-11-28T00:13:39.984Z,79.44
2016-11-28T00:14:39.939Z,78.87
2016-11-28T00:15:39.904Z,79.34
2016-11-28T00:16:39.555Z,79.15
2016-11-28T00:17:39.818Z,79.06
2016-11-28T00:18:39.777Z,78.96
2016-11-28T00:19:39.738Z,78.96
2016-11-28T00:20:39.392Z,79.44
2016-11-28T00:21:39.350Z,78.96
2016-11-28T00:22:39.614Z,78.77
2016-11-28T00:23:39.571Z,79.15
2016-11-28T00:24:39.531Z,79.06
2016-11-28T00:25:39.488Z,78.49
2016-11-28T00:26:39.444Z,79.06
2016-11-28T00:27:39.411Z,78.77
2016-11-28T00:28:39.365Z,78.67
2016-11-28T00:29:39.320Z,78.58
2016-11-28T00:30:39.287Z,78.77
2016-11-28T00:31:39.243Z,78.58
2016-11-28T00:32:39.198Z,78.77
2016-11-28T00:33:39.158Z,78.77
2016-11-28T00:34:39.116Z,78.49
2016-11-28T00:35:39.078Z,78.49
2016-11-28T00:36:39.032Z,78.58
2016-11-28T00:37:38.992Z,78.87
2016-11-28T00:38:38.952Z,78.77
2016-11-28T00:39:38.910Z,79.25
2016-11-28T00:40:38.872Z,78.96
2016-11-28T00:41:38.836Z,78.77
2016-11-28T00:42:38.788Z,79.06
2016-11-28T00:43:38.750Z,78.96
2016-11-28T00:44:38.702Z,79.15
2016-11-28T00:45:38.661Z,79.34
2016-11-28T00:46:38.623Z,78.87
2016-11-28T00:47:38.578Z,79.06
2016-11-28T00:48:38.540Z,79.15
2016-11-28T00:49:38.499Z,79.15
2016-11-28T00:50:38.161Z,78.96
2016-11-28T00:51:38.415Z,78.87
2016-11-28T00:52:38.374Z,78.96
2016-11-28T00:53:38.029Z,78.96
2016-11-28T00:54:37.988Z,79.44
2016-11-28T00:55:38.249Z,79.44
2016-11-28T00:56:37.905Z,78.96
2016-11-28T00:57:37.861Z,79.53
2016-11-28T00:58:38.124Z,79.53
2016-11-28T00:59:38.083Z,79.72
2016-11-28T01:00:38.041Z,79.34
2016-11-28T01:01:37.699Z,79.44
2016-11-28T01:02:37.655Z,78.96
2016-11-28T01:03:37.617Z,79.44
2016-11-28T01:04:37.874Z,79.53
2016-11-28T01:05:37.832Z,79.44
2016-11-28T01:06:37.796Z,78.96
2016-11-28T01:07:37.752Z,78.96
2016-11-28T01:08:37.712Z,79.44
2016-11-28T01:09:37.667Z,79.06
2016-11-28T01:10:37.628Z,79.44
2016-11-28T01:11:37.587Z,79.72
2016-11-28T01:12:37.545Z,79.91
2016-11-28T01:13:37.500Z,79.44
2016-11-28T01:14:37.459Z,79.44
2016-11-28T01:15:37.447Z,79.25
2016-11-28T01:16:37.375Z,79.34
2016-11-28T01:17:37.334Z,78.87
2016-11-28T01:18:36.993Z,79.44
2016-11-28T01:19:37.254Z,79.15
2016-11-28T01:20:37.208Z,79.53
2016-11-28T01:21:37.170Z,79.63
2016-11-28T01:22:37.128Z,79.91
2016-11-28T01:23:37.087Z,79.72
2016-11-28T01:24:37.049Z,79.91
2016-11-28T01:25:37.004Z,79.82
2016-11-28T01:26:36.663Z,79.58
2016-11-28T01:27:36.923Z,79.53
2016-11-28T01:28:36.879Z,79.91
2016-11-28T01:29:36.839Z,79.91
2016-11-28T01:30:36.495Z,79.72
2016-11-28T01:31:36.755Z,79.63
2016-11-28T01:32:36.717Z,79.44
2016-11-28T01:33:36.684Z,79.15
2016-11-28T01:34:36.629Z,78.87
2016-11-28T01:35:36.588Z,78.64
2016-11-28T01:36:36.547Z,78.92
2016-11-28T01:37:36.511Z,78.49
2016-11-28T01:38:36.463Z,78.58
2016-11-28T01:39:36.422Z,79.34
2016-11-28T01:40:36.379Z,79.25
2016-11-28T01:41:36.340Z,79.25
2016-11-28T01:42:36.299Z,78.73
2016-11-28T01:43:35.953Z,79.11
2016-11-28T01:44:35.914Z,79.15
2016-11-28T01:45:35.870Z,78.73
2016-11-28T01:46:36.131Z,78.92
2016-11-28T01:47:36.089Z,78.87
2016-11-28T01:48:36.048Z,78.92
2016-11-28T01:49:36.005Z,78.92
2016-11-28T01:50:35.966Z,79.44
2016-11-28T01:51:35.922Z,79.11
2016-11-28T01:52:35.885Z,79.25
2016-11-28T01:53:35.838Z,78.92
2016-11-28T01:54:35.495Z,79.58
2016-11-28T01:55:35.757Z,79.58
2016-11-28T01:56:35.718Z,79.68
2016-11-28T01:57:35.674Z,79.11
2016-11-28T01:58:35.633Z,79.06
2016-11-28T01:59:35.594Z,78.83
2016-11-28T02:00:35.550Z,78.96
2016-11-28T02:01:35.507Z,79.25
2016-11-28T02:02:35.467Z,78.83
2016-11-28T02:03:35.128Z,79.02
2016-11-28T02:04:35.384Z,78.87
2016-11-28T02:05:35.339Z,79.15
2016-11-28T02:06:34.998Z,78.83
2016-11-28T02:07:35.262Z,79.02
2016-11-28T02:08:35.219Z,79.06
2016-11-28T02:09:35.175Z,79.06
2016-11-28T02:10:35.136Z,79.15
2016-11-28T02:11:34.786Z,79.11
2016-11-28T02:12:35.048Z,79.11
2016-11-28T02:13:34.706Z,79.02
2016-11-28T02:14:34.970Z,79.21
2016-11-28T02:15:34.630Z,79.21
2016-11-28T02:16:34.580Z,79.02
2016-11-28T02:17:34.841Z,79.11
2016-11-28T02:18:34.497Z,79.21
2016-11-28T02:19:34.456Z,79.11
2016-11-28T02:20:34.718Z,78.73
2016-11-28T02:21:34.676Z,78.73
2016-11-28T02:22:34.634Z,79.11
2016-11-28T02:23:34.594Z,79.11
2016-11-28T02:24:34.248Z,79.68
2016-11-28T02:25:34.510Z,79.49
2016-11-28T02:26:34.163Z,79.3
2016-11-28T02:27:34.424Z,79.3
2016-11-28T02:28:34.085Z,79.58
2016-11-28T02:29:34.358Z,79.96
2016-11-28T02:30:34.303Z,79.96
2016-11-28T02:31:34.261Z,79.87
2016-11-28T02:32:33.914Z,79.87
2016-11-28T02:33:34.176Z,79.39
2016-11-28T02:34:33.832Z,79.21
2016-11-28T02:35:33.790Z,79.21
2016-11-28T02:36:34.057Z,79.21
2016-11-28T02:37:34.009Z,79.58
2016-11-28T02:38:33.994Z,79.49
2016-11-28T02:39:33.624Z,79.58
2016-11-28T02:40:33.889Z,79.68
2016-11-28T02:41:33.843Z,79.49
2016-11-28T02:42:33.803Z,79.68
2016-11-28T02:43:33.458Z,79.21
2016-11-28T02:44:33.717Z,79.11
2016-11-28T02:45:33.374Z,79.39
2016-11-28T02:46:33.633Z,79.49
2016-11-28T02:47:33.601Z,79.68
2016-11-28T02:48:33.550Z,79.3
2016-11-28T02:49:33.210Z,79.58
2016-11-28T02:50:33.468Z,79.49
2016-11-28T02:51:33.121Z,79.87
2016-11-28T02:52:33.081Z,79.58
2016-11-28T02:53:33.041Z,80.06
2016-11-28T02:54:33.303Z,79.68
2016-11-28T02:55:33.260Z,79.58
2016-11-28T02:56:33.246Z,79.39
2016-11-28T02:57:33.176Z,79.49
2016-11-28T02:58:33.134Z,79.49
2016-11-28T02:59:33.093Z,79.49
2016-11-28T03:00:33.051Z,79.39
2016-11-28T03:01:33.010Z,79.02
2016-11-28T03:02:32.968Z,78.92
2016-11-28T03:03:32.929Z,78.83
2016-11-28T03:04:32.585Z,79.11
2016-11-28T03:05:32.543Z,78.92
2016-11-28T03:06:32.801Z,78.83
2016-11-28T03:07:32.760Z,78.83
2016-11-28T03:08:32.721Z,79.02
2016-11-28T03:09:32.377Z,78.92
2016-11-28T03:10:32.636Z,79.21
2016-11-28T03:11:32.593Z,79.02
2016-11-28T03:12:32.551Z,79.39
2016-11-28T03:13:32.511Z,79.21
2016-11-28T03:14:32.468Z,79.49
2016-11-28T03:15:32.429Z,79.49
2016-11-28T03:16:32.388Z,79.39
2016-11-28T03:17:32.044Z,79.49
2016-11-28T03:18:32.301Z,79.87
2016-11-28T03:19:32.261Z,79.77
2016-11-28T03:20:31.916Z,79.87
2016-11-28T03:21:32.175Z,79.96
2016-11-28T03:22:32.142Z,79.39
2016-11-28T03:23:32.093Z,80.25
2016-11-28T03:24:31.748Z,79.58
2016-11-28T03:25:32.011Z,80.06
2016-11-28T03:26:31.969Z,80.06
2016-11-28T03:27:31.927Z,79.87
2016-11-28T03:28:31.883Z,80.25
2016-11-28T03:29:31.841Z,79.68
2016-11-28T03:30:31.800Z,79.77
2016-11-28T03:31:31.759Z,80.06
2016-11-28T03:32:31.716Z,79.77
2016-11-28T03:33:31.679Z,79.83
2016-11-28T03:34:31.636Z,79.36
2016-11-28T03:35:31.589Z,79.36
2016-11-28T03:36:31.550Z,79.55
2016-11-28T03:37:31.512Z,79.74
2016-11-28T03:38:31.473Z,79.17
2016-11-28T03:39:31.426Z,79.26
2016-11-28T03:40:31.385Z,79.93
2016-11-28T03:41:31.047Z,80.02
2016-11-28T03:42:31.298Z,80.02
2016-11-28T03:43:30.963Z,79.36
2016-11-28T03:44:31.215Z,80.21
2016-11-28T03:45:31.181Z,79.93
2016-11-28T03:46:31.130Z,79.83
2016-11-28T03:47:31.095Z,79.45
2016-11-28T03:48:31.048Z,79.93
2016-11-28T03:49:31.009Z,79.64
2016-11-28T03:50:30.970Z,79.74
2016-11-28T03:51:30.922Z,80.11
2016-11-28T03:52:30.879Z,79.93
2016-11-28T03:53:30.838Z,79.83
2016-11-28T03:54:30.795Z,79.93
2016-11-28T03:55:30.751Z,80.11
2016-11-28T03:56:30.411Z,80.02
2016-11-28T03:57:30.668Z,79.69
2016-11-28T03:58:30.629Z,79.64
2016-11-28T03:59:30.584Z,79.32
2016-11-28T04:00:30.547Z,79.79
2016-11-28T04:01:30.501Z,79.79
2016-11-28T04:02:30.460Z,79.79
2016-11-28T04:03:30.415Z,79.98
2016-11-28T04:04:30.375Z,79.79
2016-11-28T04:05:30.331Z,80.07
2016-11-28T04:06:29.989Z,79.98
2016-11-28T04:07:30.247Z,79.69
2016-11-28T04:08:30.207Z,80.45
2016-11-28T04:09:29.859Z,80.93
2016-11-28T04:10:30.120Z,80.83
2016-11-28T04:11:30.079Z,80.26
2016-11-28T04:12:30.036Z,80.07
2016-11-28T04:13:29.995Z,80.83
2016-11-28T04:14:29.956Z,80.83
2016-11-28T04:15:29.910Z,80.83
2016-11-28T04:16:29.869Z,80.45
2016-11-28T04:17:29.827Z,80.55
2016-11-28T04:18:29.784Z,80.74
2016-11-28T04:19:29.749Z,79.88
2016-11-28T04:20:29.698Z,79.69
2016-11-28T04:21:29.656Z,79.69
2016-11-28T04:22:29.615Z,79.69
2016-11-28T04:23:29.570Z,79.5
2016-11-28T04:24:29.226Z,79.03
2016-11-28T04:25:29.188Z,79.13
2016-11-28T04:26:29.446Z,79.13
2016-11-28T04:27:29.101Z,79.13
2016-11-28T04:28:29.362Z,79.6
2016-11-28T04:29:29.319Z,79.6
2016-11-28T04:30:29.274Z,79.41
2016-11-28T04:31:29.234Z,79.22
2016-11-28T04:32:29.191Z,79.03
2016-11-28T04:33:29.150Z,79.32
2016-11-28T04:34:29.112Z,79.88
2016-11-28T04:35:29.064Z,79.6
2016-11-28T04:36:28.720Z,79.79
2016-11-28T04:37:28.676Z,79.5
2016-11-28T04:38:28.936Z,79.5
2016-11-28T04:39:28.896Z,79.79
2016-11-28T04:40:28.849Z,79.69
2016-11-28T04:41:28.809Z,79.6
2016-11-28T04:42:28.771Z,79.98
2016-11-28T04:43:28.727Z,79.98
2016-11-28T04:44:28.681Z,79.88
2016-11-28T04:45:28.640Z,80.55
2016-11-28T04:46:28.598Z,80.55
2016-11-28T04:47:28.554Z,80.64
2016-11-28T04:48:28.510Z,80.45
2016-11-28T04:49:28.470Z,80.51
2016-11-28T04:50:28.457Z,80.51
2016-11-28T04:51:28.385Z,80.51
2016-11-28T04:52:28.039Z,80.69
2016-11-28T04:53:28.300Z,80.51
2016-11-28T04:54:27.955Z,81.07
2016-11-28T04:55:28.217Z,81.74
2016-11-28T04:56:28.173Z,81.74
2016-11-28T04:57:28.133Z,80.88
2016-11-28T04:58:27.789Z,80.79
2016-11-28T04:59:27.741Z,81.07
2016-11-28T05:00:27.701Z,81.07
2016-11-28T05:01:27.959Z,81.55
2016-11-28T05:02:27.919Z,81.36
2016-11-28T05:03:27.877Z,81.55
2016-11-28T05:04:27.830Z,81.36
2016-11-28T05:05:27.806Z,81.36
2016-11-28T05:06:27.746Z,81.45
2016-11-28T05:07:27.402Z,82.12
2016-11-28T05:08:27.661Z,81.26
2016-11-28T05:09:27.626Z,81.64
2016-11-28T05:10:27.578Z,81.45
2016-11-28T05:11:27.537Z,81.45
2016-11-28T05:12:27.497Z,81.55
2016-11-28T05:13:27.150Z,81.83
2016-11-28T05:14:27.105Z,82.02
2016-11-28T05:15:27.366Z,81.45
2016-11-28T05:16:27.321Z,81.36
2016-11-28T05:17:26.977Z,81.55
2016-11-28T05:18:27.236Z,81.74
2016-11-28T05:19:27.193Z,80.79
2016-11-28T05:20:27.159Z,81.64
2016-11-28T05:21:27.109Z,80.88
2016-11-28T05:22:27.066Z,81.36
2016-11-28T05:23:26.721Z,81.55
2016-11-28T05:24:26.978Z,81.36
2016-11-28T05:25:26.987Z,81.36
2016-11-28T05:26:26.897Z,81.55
2016-11-28T05:27:26.850Z,80.88
2016-11-28T05:28:26.810Z,81.36
2016-11-28T05:29:26.770Z,81.17
2016-11-28T05:30:26.725Z,80.88
2016-11-28T05:31:26.381Z,81.17
2016-11-28T05:32:26.335Z,80.79
2016-11-28T05:33:26.294Z,81.74
2016-11-28T05:34:26.558Z,80.6
2016-11-28T05:35:26.510Z,80.79
2016-11-28T05:36:26.468Z,81.17
2016-11-28T05:37:26.427Z,81.07
2016-11-28T05:38:26.383Z,80.88
2016-11-28T05:39:26.340Z,80.79
2016-11-28T05:40:26.297Z,80.69
2016-11-28T05:41:26.257Z,81.36
2016-11-28T05:42:26.214Z,81.17
2016-11-28T05:43:26.167Z,80.79
2016-11-28T05:44:26.125Z,80.88
2016-11-28T05:45:26.086Z,81.17
2016-11-28T05:46:26.043Z,81.17
2016-11-28T05:47:25.696Z,81.17
2016-11-28T05:48:25.955Z,80.56
2016-11-28T05:49:25.914Z,80.32
2016-11-28T05:50:25.867Z,80.41
2016-11-28T05:51:25.524Z,80.08
2016-11-28T05:52:25.483Z,80.65
2016-11-28T05:53:25.742Z,80.94
2016-11-28T05:54:25.700Z,80.08
2016-11-28T05:55:25.657Z,80.6
2016-11-28T05:56:25.613Z,79.94
2016-11-28T05:57:25.570Z,80.18
2016-11-28T05:58:25.224Z,79.85
2016-11-28T05:59:25.487Z,79.37
2016-11-28T06:00:25.139Z,79.75
2016-11-28T06:01:25.403Z,79.9
2016-11-28T06:02:25.356Z,79.99
2016-11-28T06:03:25.013Z,79.99
2016-11-28T06:04:25.269Z,79.9
2016-11-28T06:05:25.228Z,79.61
2016-11-28T06:06:25.186Z,79.9
2016-11-28T06:07:25.147Z,79.9
2016-11-28T06:08:25.108Z,79.99
2016-11-28T06:09:25.059Z,79.9
2016-11-28T06:10:24.715Z,79.71
2016-11-28T06:11:24.978Z,79.52
2016-11-28T06:12:24.930Z,80.18
2016-11-28T06:13:24.893Z,80.46
2016-11-28T06:14:24.544Z,80.46
2016-11-28T06:15:24.506Z,80.08
2016-11-28T06:16:24.759Z,80.75
2016-11-28T06:17:24.717Z,80.46
2016-11-28T06:18:24.672Z,80.84
2016-11-28T06:19:24.628Z,79.9
2016-11-28T06:20:24.287Z,80.18
2016-11-28T06:21:24.546Z,80.18
2016-11-28T06:22:24.508Z,79.99
2016-11-28T06:23:24.460Z,80.18
2016-11-28T06:24:24.420Z,80.08
2016-11-28T06:25:24.375Z,80.18
2016-11-28T06:26:24.030Z,80.08
2016-11-28T06:27:23.985Z,80.18
2016-11-28T06:28:24.247Z,80.27
2016-11-28T06:29:24.204Z,80.94
2016-11-28T06:30:23.859Z,80.18
2016-11-28T06:31:24.117Z,80.56
2016-11-28T06:32:24.074Z,80.65
2016-11-28T06:33:23.731Z,81.03
2016-11-28T06:34:23.991Z,80.46
2016-11-28T06:35:23.947Z,80.56
2016-11-28T06:36:23.904Z,81.13
2016-11-28T06:37:23.865Z,80.75
2016-11-28T06:38:23.515Z,81.13
2016-11-28T06:39:23.772Z,80.65
2016-11-28T06:40:23.731Z,81.51
2016-11-28T06:41:23.686Z,81.51
2016-11-28T06:42:23.643Z,81.79
2016-11-28T06:43:23.621Z,81.41
2016-11-28T06:44:23.558Z,81.13
2016-11-28T06:45:23.518Z,81.88
2016-11-28T06:46:23.472Z,82.07
2016-11-28T06:47:23.433Z,81.6
2016-11-28T06:48:23.088Z,82.26
2016-11-28T06:49:23.042Z,81.88
2016-11-28T06:50:23.307Z,82.45
2016-11-28T06:51:22.961Z,82.35
2016-11-28T06:52:22.914Z,82.45
2016-11-28T06:53:23.177Z,82.26
2016-11-28T06:54:23.130Z,81.7
2016-11-28T06:55:23.097Z,82.26
2016-11-28T06:56:23.047Z,81.88
2016-11-28T06:57:23.002Z,81.98
2016-11-28T06:58:22.959Z,82.73
2016-11-28T06:59:22.914Z,82.64
2016-11-28T07:00:22.570Z,81.7
2016-11-28T07:01:22.830Z,81.17
2016-11-28T07:02:22.487Z,80.32
2016-11-28T07:03:22.441Z,80.04
2016-11-28T07:04:22.401Z,78.8
2016-11-28T07:05:22.665Z,77.95
2016-11-28T07:06:22.617Z,77.7
2016-11-28T07:07:22.573Z,77.33
2016-11-28T07:08:22.228Z,76.57
2016-11-28T07:09:22.488Z,76
2016-11-28T07:10:22.449Z,75.34
2016-11-28T07:11:22.408Z,75.53
2016-11-28T07:12:22.057Z,74.43
2016-11-28T07:13:22.017Z,74.05
2016-11-28T07:14:21.974Z,73.11
2016-11-28T07:15:22.235Z,72.44
2016-11-28T07:16:22.192Z,71.78
2016-11-28T07:17:22.146Z,71.02
2016-11-28T07:18:22.107Z,70.11
2016-11-28T07:19:22.062Z,69.26
2016-11-28T07:20:22.021Z,68.69
2016-11-28T07:21:21.979Z,68.12
2016-11-28T07:22:21.639Z,67.4
2016-11-28T07:23:21.897Z,67.11
2016-11-28T07:24:21.857Z,66.16
2016-11-28T07:25:21.823Z,65.03
2016-11-28T07:26:21.770Z,64.55
2016-11-28T07:27:21.730Z,63.64
2016-11-28T07:28:21.690Z,63.54
2016-11-28T07:29:21.646Z,62.78
2016-11-28T07:30:21.606Z,62.78
2016-11-28T07:31:21.563Z,61.93
2016-11-28T07:32:21.524Z,62.59
2016-11-28T07:33:21.482Z,61.93
2016-11-28T07:34:21.442Z,60.98
2016-11-28T07:35:21.401Z,60.31
2016-11-28T07:36:21.360Z,60.35
2016-11-28T07:37:21.318Z,60.06
2016-11-28T07:38:21.288Z,59.49
2016-11-28T07:39:20.938Z,59.21
2016-11-28T07:40:21.197Z,58.64
2016-11-28T07:41:21.160Z,57.62
2016-11-28T07:42:21.119Z,57.81
2016-11-28T07:43:21.075Z,57.43
2016-11-28T07:44:21.038Z,57.34
2016-11-28T07:45:20.996Z,57.06
2016-11-28T07:46:20.956Z,56.1
2016-11-28T07:47:20.616Z,55.91
2016-11-28T07:48:20.880Z,55.54
2016-11-28T07:49:20.836Z,54.8
2016-11-28T07:50:20.800Z,54.8
2016-11-28T07:51:20.757Z,54.14
2016-11-28T07:52:20.721Z,53.57
2016-11-28T07:53:20.677Z,52.72
2016-11-28T07:54:20.634Z,53.19
2016-11-28T07:55:20.604Z,52.91
2016-11-28T07:56:20.557Z,52.62
2016-11-28T07:57:20.547Z,52.53
2016-11-28T07:58:20.480Z,52.45
2016-11-28T07:59:20.138Z,51.22
2016-11-28T08:00:20.400Z,50.65
2016-11-28T08:01:20.362Z,51.22
2016-11-28T08:02:20.324Z,50.08
2016-11-28T08:03:20.291Z,49.89
2016-11-28T08:04:20.247Z,50.68
2016-11-28T08:05:20.206Z,50.1
2016-11-28T08:06:20.170Z,50.29
2016-11-28T08:07:20.130Z,49.82
2016-11-28T08:08:19.790Z,49.63
2016-11-28T08:09:19.748Z,49.73
2016-11-28T08:10:20.014Z,49.82
2016-11-28T08:11:19.976Z,49.63
2016-11-28T08:12:19.938Z,49.91
2016-11-28T08:13:19.596Z,49.82
2016-11-28T08:14:19.861Z,49.6
2016-11-28T08:15:19.820Z,49.44
2016-11-28T08:16:19.784Z,48.87
2016-11-28T08:17:19.750Z,47.85
2016-11-28T08:18:19.707Z,47.37
2016-11-28T08:19:19.671Z,47.09
2016-11-28T08:20:19.635Z,46.99
2016-11-28T08:21:19.293Z,47.18
2016-11-28T08:22:19.253Z,46.61
2016-11-28T08:23:19.219Z,45.37
2016-11-28T08:24:19.177Z,45.37
2016-11-28T08:25:19.172Z,45.47
2016-11-28T08:26:19.105Z,45.01
2016-11-28T08:27:19.372Z,44.64
2016-11-28T08:28:19.356Z,45.47
2016-11-28T08:29:19.294Z,45.56
2016-11-28T08:30:19.256Z,44.61
2016-11-28T08:31:19.218Z,44.33
2016-11-28T08:32:19.185Z,43.49
2016-11-28T08:33:19.145Z,43.02
2016-11-28T08:34:18.806Z,43.23
2016-11-28T08:35:19.071Z,43.02
2016-11-28T08:36:19.031Z,43.02
2016-11-28T08:37:18.994Z,42.76
2016-11-28T08:38:18.959Z,42.76
2016-11-28T08:39:18.922Z,43.04
2016-11-28T08:40:18.886Z,43.04
2016-11-28T08:41:18.548Z,42.83
2016-11-28T08:42:18.814Z,42.56
2016-11-28T08:43:18.780Z,42.66
2016-11-28T08:44:18.751Z,41.8
2016-11-28T08:45:18.402Z,41.52
2016-11-28T08:46:18.667Z,40.56
2016-11-28T08:47:18.327Z,39.82
2016-11-28T08:48:18.594Z,39.92
2016-11-28T08:49:18.556Z,40.2
2016-11-28T08:50:18.226Z,40.66
2016-11-28T08:51:18.488Z,41.33
2016-11-28T08:52:18.650Z,41.13
2016-11-28T08:53:18.408Z,40.37
2016-11-28T08:54:18.376Z,40.48
2016-11-28T08:55:18.040Z,40.48
2016-11-28T08:56:18.304Z,39.92
2016-11-28T08:57:18.270Z,40.2
2016-11-28T08:58:18.231Z,40.39
2016-11-28T08:59:18.199Z,39.63
2016-11-28T09:00:18.168Z,40.47
2016-11-28T09:01:18.127Z,40.18
2016-11-28T09:02:18.094Z,40.28
2016-11-28T09:03:17.781Z,39.8
2016-11-28T09:04:18.017Z,39.73
2016-11-28T09:05:17.680Z,39.73
2016-11-28T09:06:17.950Z,39.7
2016-11-28T09:07:17.914Z,39.8
2016-11-28T09:08:17.877Z,39.61
2016-11-28T09:09:17.848Z,40.09
2016-11-28T09:10:17.805Z,39.8
2016-11-28T09:11:17.768Z,39.9
2016-11-28T09:12:17.738Z,39.61
2016-11-28T09:13:17.396Z,39.99
2016-11-28T09:14:17.666Z,39.14
2016-11-28T09:15:17.627Z,38.85
2016-11-28T09:16:17.592Z,38.01
2016-11-28T09:17:17.556Z,38.01
2016-11-28T09:18:17.520Z,38.49
2016-11-28T09:19:17.488Z,38.68
2016-11-28T09:20:17.452Z,38.68
2016-11-28T09:21:17.418Z,39.51
2016-11-28T09:22:17.405Z,39.23
2016-11-28T09:23:17.348Z,38.68
2016-11-28T09:24:17.310Z,38.78
2016-11-28T09:25:17.277Z,38.78
2016-11-28T09:26:17.236Z,37.92
2016-11-28T09:27:17.209Z,36.96
2016-11-28T09:28:17.172Z,36.96
2016-11-28T09:29:17.137Z,36.96
2016-11-28T09:30:17.103Z,37.55
2016-11-28T09:31:17.068Z,36.88
2016-11-28T09:32:16.731Z,36.88
2016-11-28T09:33:16.999Z,36.51
2016-11-28T09:34:16.964Z,36.51
2016-11-28T09:35:16.962Z,35.84
2016-11-28T09:36:16.895Z,35.28
2016-11-28T09:37:16.860Z,35.19
2016-11-28T09:38:16.829Z,35.38
2016-11-28T09:39:16.797Z,34.05
2016-11-28T09:40:16.759Z,34.33
2016-11-28T09:41:16.724Z,34.81
2016-11-28T09:42:16.690Z,35.27
2016-11-28T09:43:16.656Z,35.36
2016-11-28T09:44:16.621Z,35.36
2016-11-28T09:45:16.587Z,35.53
2016-11-28T09:46:16.253Z,35.44
2016-11-28T09:47:16.218Z,36.58
2016-11-28T09:48:16.486Z,37.52
2016-11-28T09:49:16.453Z,37.32
2016-11-28T09:50:16.419Z,36.87
2016-11-28T09:51:16.081Z,36.1
2016-11-28T09:52:16.350Z,35.82
2016-11-28T09:53:16.318Z,35.35
2016-11-28T09:54:16.280Z,35.55
2016-11-28T09:55:16.252Z,35.35
2016-11-28T09:56:16.216Z,35.35
2016-11-28T09:57:16.180Z,34.77
2016-11-28T09:58:15.845Z,33.82
2016-11-28T09:59:15.814Z,33.84
2016-11-28T10:00:15.775Z,34.41
2016-11-28T10:01:15.742Z,34.48
2016-11-28T10:02:15.709Z,35.25
2016-11-28T10:03:15.689Z,35.35
2016-11-28T10:04:15.645Z,34.48
2016-11-28T10:05:15.908Z,33.34
2016-11-28T10:06:15.578Z,33.44
2016-11-28T10:07:15.842Z,34.01
2016-11-28T10:08:15.806Z,34.11
2016-11-28T10:09:15.773Z,33.82
2016-11-28T10:10:15.739Z,34.66
2016-11-28T10:11:15.707Z,35.52
2016-11-28T10:12:15.369Z,34.85
2016-11-28T10:13:15.635Z,34.38
2016-11-28T10:14:15.313Z,34.47
2016-11-28T10:15:15.570Z,34.2
2016-11-28T10:16:15.535Z,34.2
2016-11-28T10:17:15.499Z,33.63
2016-11-28T10:18:15.467Z,33.74
2016-11-28T10:19:15.429Z,32.81
2016-11-28T10:20:15.395Z,33.18
2016-11-28T10:21:15.361Z,33
2016-11-28T10:22:15.330Z,32.73
2016-11-28T10:23:14.992Z,32.44
2016-11-28T10:24:15.259Z,31.87
2016-11-28T10:25:14.926Z,31.39
2016-11-28T10:26:14.888Z,31.2
2016-11-28T10:27:15.157Z,31.29
2016-11-28T10:28:15.124Z,32.06
2016-11-28T10:29:15.089Z,31.76
2016-11-28T10:30:14.756Z,32.4
2016-11-28T10:31:15.028Z,33.45
2016-11-28T10:32:14.991Z,33.55
2016-11-28T10:33:14.956Z,33.82
2016-11-28T10:34:14.926Z,34.87
2016-11-28T10:35:14.893Z,35.25
2016-11-28T10:36:14.859Z,35.35
2016-11-28T10:37:14.825Z,35.42
2016-11-28T10:38:14.787Z,36.18
2016-11-28T10:39:14.452Z,36.57
2016-11-28T10:40:14.721Z,36.18
2016-11-28T10:41:14.689Z,36.55
2016-11-28T10:42:14.652Z,37.02
2016-11-28T10:43:14.621Z,37.3
2016-11-28T10:44:14.585Z,37.86
2016-11-28T10:45:14.252Z,38.05
2016-11-28T10:46:14.518Z,38.24
2016-11-28T10:47:14.179Z,38.79
2016-11-28T10:48:14.448Z,38.71
2016-11-28T10:49:14.415Z,38.05
2016-11-28T10:50:14.411Z,37.86
2016-11-28T10:51:14.344Z,37.86
2016-11-28T10:52:14.310Z,38.05
2016-11-28T10:53:14.273Z,38.34
2016-11-28T10:54:14.238Z,37.48
2016-11-28T10:55:14.206Z,37.29
2016-11-28T10:56:14.170Z,37.19
2016-11-28T10:57:14.136Z,36.83
2016-11-28T10:58:14.100Z,37.19
2016-11-28T10:59:14.087Z,37.38
2016-11-28T11:00:14.046Z,37.67
2016-11-28T11:01:13.999Z,37.48
2016-11-28T11:02:13.959Z,38.05
2016-11-28T11:03:13.928Z,38.7
2016-11-28T11:04:13.888Z,38.51
2016-11-28T11:05:13.856Z,39.07
2016-11-28T11:06:13.825Z,39.65
2016-11-28T11:07:13.483Z,39.84
2016-11-28T11:08:13.757Z,39.81
2016-11-28T11:09:13.715Z,40.1
2016-11-28T11:10:13.374Z,40.39
2016-11-28T11:11:13.342Z,40.29
2016-11-28T11:12:13.309Z,40.67
2016-11-28T11:13:13.269Z,41.05
2016-11-28T11:14:13.537Z,40.86
2016-11-28T11:15:13.499Z,40.84
2016-11-28T11:16:13.464Z,41.79
2016-11-28T11:17:13.127Z,41.98
2016-11-28T11:18:13.397Z,42.74
2016-11-28T11:19:13.352Z,42.36
2016-11-28T11:20:13.317Z,42.55
2016-11-28T11:21:12.980Z,43.21
2016-11-28T11:22:13.244Z,42.74
2016-11-28T11:23:12.904Z,43.5
2016-11-28T11:24:13.170Z,44.35
2016-11-28T11:25:13.133Z,43.48
2016-11-28T11:26:13.100Z,43.38
2016-11-28T11:27:13.058Z,43.48
2016-11-28T11:28:13.020Z,43.57
2016-11-28T11:29:12.987Z,44.34
2016-11-28T11:30:12.653Z,45.36
2016-11-28T11:31:12.906Z,45.36
2016-11-28T11:32:12.565Z,45.45
2016-11-28T11:33:12.832Z,46.21
2016-11-28T11:34:12.792Z,46.28
2016-11-28T11:35:12.754Z,46.47
2016-11-28T11:36:12.416Z,47.23
2016-11-28T11:37:12.677Z,48.18
2016-11-28T11:38:12.637Z,48.46
2016-11-28T11:39:12.599Z,48.18
2016-11-28T11:40:12.560Z,48.63
2016-11-28T11:41:12.522Z,49.19
2016-11-28T11:42:12.179Z,49.48
2016-11-28T11:43:12.442Z,49.48
2016-11-28T11:44:12.404Z,49.76
2016-11-28T11:45:12.063Z,49.48
2016-11-28T11:46:12.326Z,49.29
2016-11-28T11:47:12.287Z,48.72
2016-11-28T11:48:12.246Z,48.54
2016-11-28T11:49:12.209Z,48.82
2016-11-28T11:50:12.165Z,49.01
2016-11-28T11:51:11.825Z,49.67
2016-11-28T11:52:12.087Z,49.84
2016-11-28T11:53:12.046Z,50.49
2016-11-28T11:54:12.005Z,50.4
2016-11-28T11:55:11.965Z,50.78
2016-11-28T11:56:11.929Z,50.62
2016-11-28T11:57:11.883Z,50.43
2016-11-28T11:58:11.844Z,49.76
2016-11-28T11:59:11.501Z,49.67
2016-11-28T12:00:11.463Z,49.65
2016-11-28T12:01:11.724Z,49.65
2016-11-28T12:02:11.681Z,49.93
2016-11-28T12:03:11.640Z,50.02
2016-11-28T12:04:11.602Z,50.4
2016-11-28T12:05:11.564Z,49.84
2016-11-28T12:06:11.522Z,49.46
2016-11-28T12:07:11.478Z,49.36
2016-11-28T12:08:11.440Z,50.12
2016-11-28T12:09:11.403Z,50.59
2016-11-28T12:10:11.356Z,50.59
2016-11-28T12:11:11.317Z,50.69
2016-11-28T12:12:10.975Z,50.4
2016-11-28T12:13:11.238Z,50.49
2016-11-28T12:14:10.891Z,50.4
2016-11-28T12:15:11.155Z,49.84
2016-11-28T12:16:10.813Z,51.16
2016-11-28T12:17:10.771Z,49.65
2016-11-28T12:18:11.034Z,50.49
2016-11-28T12:19:11.008Z,49.93
2016-11-28T12:20:10.951Z,49.46
2016-11-28T12:21:10.911Z,49.84
2016-11-28T12:22:10.869Z,50.12
2016-11-28T12:23:10.532Z,50.59
2016-11-28T12:24:10.484Z,49.84
2016-11-28T12:25:10.744Z,49.93
2016-11-28T12:26:10.706Z,50.69
2016-11-28T12:27:10.668Z,50.12
2016-11-28T12:28:10.623Z,49.74
2016-11-28T12:29:10.277Z,50.02
2016-11-28T12:30:10.239Z,50.49
2016-11-28T12:31:10.502Z,49.84
2016-11-28T12:32:10.169Z,50.4
2016-11-28T12:33:10.114Z,49.74
2016-11-28T12:34:10.375Z,49.08
2016-11-28T12:35:10.336Z,49.27
2016-11-28T12:36:09.991Z,49.46
2016-11-28T12:37:10.250Z,50.49
2016-11-28T12:38:10.212Z,50.59
2016-11-28T12:39:09.866Z,50.59
2016-11-28T12:40:09.828Z,50.21
2016-11-28T12:41:10.081Z,50.78
2016-11-28T12:42:10.046Z,50.69
2016-11-28T12:43:10.003Z,50.4
2016-11-28T12:44:09.964Z,50.59
2016-11-28T12:45:09.925Z,50.4
2016-11-28T12:46:09.580Z,49.84
2016-11-28T12:47:09.840Z,49.55
2016-11-28T12:48:09.800Z,50.12
2016-11-28T12:49:09.453Z,50.12
2016-11-28T12:50:09.726Z,50.69
2016-11-28T12:51:09.673Z,49.81
2016-11-28T12:52:09.635Z,49.74
2016-11-28T12:53:09.590Z,48.58
2016-11-28T12:54:09.548Z,48.39